sensor_id;sensor_type;location;lat;lon;timestamp;temperature;humidity
6627;DHT22;3349;49.830;8.748;2022-08-01T00:01:44;20.90;72.30
6627;DHT22;3349;49.830;8.748;2022-08-01T00:04:11;20.90;72.50
6627;DHT22;3349;49.830;8.748;2022-08-01T00:06:37;20.90;72.40
6627;DHT22;3349;49.830;8.748;2022-08-01T00:09:04;20.90;72.60
6627;DHT22;3349;49.830;8.748;2022-08-01T00:11:31;20.90;73.10
6627;DHT22;3349;49.830;8.748;2022-08-01T00:13:58;20.80;73.40
6627;DHT22;3349;49.830;8.748;2022-08-01T00:16:26;20.80;73.70
6627;DHT22;3349;49.830;8.748;2022-08-01T00:18:53;20.80;74.10
6627;DHT22;3349;49.830;8.748;2022-08-01T00:21:20;20.80;74.50
6627;DHT22;3349;49.830;8.748;2022-08-01T00:23:47;20.80;74.80
6627;DHT22;3349;49.830;8.748;2022-08-01T00:26:14;20.70;74.90
6627;DHT22;3349;49.830;8.748;2022-08-01T00:28:41;20.80;74.60
6627;DHT22;3349;49.830;8.748;2022-08-01T00:31:08;20.80;74.50
6627;DHT22;3349;49.830;8.748;2022-08-01T00:33:36;20.80;74.60
6627;DHT22;3349;49.830;8.748;2022-08-01T00:36:03;20.70;74.70
6627;DHT22;3349;49.830;8.748;2022-08-01T00:38:29;20.70;74.80
6627;DHT22;3349;49.830;8.748;2022-08-01T00:40:57;20.70;74.70
6627;DHT22;3349;49.830;8.748;2022-08-01T00:43:23;20.70;74.60
6627;DHT22;3349;49.830;8.748;2022-08-01T00:45:50;20.70;74.40
6627;DHT22;3349;49.830;8.748;2022-08-01T00:48:17;20.90;72.40
6627;DHT22;3349;49.830;8.748;2022-08-01T00:50:45;21.00;70.90
6627;DHT22;3349;49.830;8.748;2022-08-01T00:53:12;21.20;70.20
6627;DHT22;3349;49.830;8.748;2022-08-01T00:55:39;21.20;69.80
6627;DHT22;3349;49.830;8.748;2022-08-01T00:58:06;21.40;68.50
6627;DHT22;3349;49.830;8.748;2022-08-01T01:00:34;21.50;67.30
6627;DHT22;3349;49.830;8.748;2022-08-01T01:03:02;21.60;67.40
6627;DHT22;3349;49.830;8.748;2022-08-01T01:05:33;21.80;66.50
6627;DHT22;3349;49.830;8.748;2022-08-01T01:08:08;21.80;65.90
6627;DHT22;3349;49.830;8.748;2022-08-01T01:10:42;21.90;65.50
6627;DHT22;3349;49.830;8.748;2022-08-01T01:13:12;21.90;65.20
6627;DHT22;3349;49.830;8.748;2022-08-01T01:15:44;21.90;64.90
6627;DHT22;3349;49.830;8.748;2022-08-01T01:18:17;21.90;65.00
6627;DHT22;3349;49.830;8.748;2022-08-01T01:20:51;21.90;64.90
6627;DHT22;3349;49.830;8.748;2022-08-01T01:23:32;21.90;65.00
6627;DHT22;3349;49.830;8.748;2022-08-01T01:26:25;21.90;65.10
6627;DHT22;3349;49.830;8.748;2022-08-01T01:29:04;21.90;65.00
6627;DHT22;3349;49.830;8.748;2022-08-01T01:31:39;21.90;65.30
6627;DHT22;3349;49.830;8.748;2022-08-01T01:34:08;21.90;65.30
6627;DHT22;3349;49.830;8.748;2022-08-01T01:36:36;21.80;65.70
6627;DHT22;3349;49.830;8.748;2022-08-01T01:39:03;21.80;65.80
6627;DHT22;3349;49.830;8.748;2022-08-01T01:41:30;21.80;65.80
6627;DHT22;3349;49.830;8.748;2022-08-01T01:43:58;21.80;66.10
6627;DHT22;3349;49.830;8.748;2022-08-01T01:46:28;21.80;66.30
6627;DHT22;3349;49.830;8.748;2022-08-01T01:48:58;21.80;66.20
6627;DHT22;3349;49.830;8.748;2022-08-01T01:51:27;21.80;66.30
6627;DHT22;3349;49.830;8.748;2022-08-01T01:53:55;21.70;66.50
6627;DHT22;3349;49.830;8.748;2022-08-01T01:56:23;21.70;67.00
6627;DHT22;3349;49.830;8.748;2022-08-01T01:58:52;21.60;67.40
6627;DHT22;3349;49.830;8.748;2022-08-01T02:01:21;21.60;67.40
6627;DHT22;3349;49.830;8.748;2022-08-01T02:03:52;21.50;67.50
6627;DHT22;3349;49.830;8.748;2022-08-01T02:06:20;21.50;67.90
6627;DHT22;3349;49.830;8.748;2022-08-01T02:08:48;21.50;68.10
6627;DHT22;3349;49.830;8.748;2022-08-01T02:11:14;21.40;68.30
6627;DHT22;3349;49.830;8.748;2022-08-01T02:13:53;21.40;68.80
6627;DHT22;3349;49.830;8.748;2022-08-01T02:16:23;21.30;69.20
6627;DHT22;3349;49.830;8.748;2022-08-01T02:18:52;21.30;69.50
6627;DHT22;3349;49.830;8.748;2022-08-01T02:21:25;21.30;69.80
6627;DHT22;3349;49.830;8.748;2022-08-01T02:23:54;21.30;69.80
6627;DHT22;3349;49.830;8.748;2022-08-01T02:26:22;21.20;70.00
6627;DHT22;3349;49.830;8.748;2022-08-01T02:28:54;21.20;70.20
6627;DHT22;3349;49.830;8.748;2022-08-01T02:31:22;21.20;70.10
6627;DHT22;3349;49.830;8.748;2022-08-01T02:33:57;21.20;70.50
6627;DHT22;3349;49.830;8.748;2022-08-01T02:36:26;21.20;70.60
6627;DHT22;3349;49.830;8.748;2022-08-01T02:38:54;21.10;70.90
6627;DHT22;3349;49.830;8.748;2022-08-01T02:41:23;21.10;70.90
6627;DHT22;3349;49.830;8.748;2022-08-01T02:43:53;21.10;71.50
6627;DHT22;3349;49.830;8.748;2022-08-01T02:46:28;21.10;71.60
6627;DHT22;3349;49.830;8.748;2022-08-01T02:49:00;21.00;71.80
6627;DHT22;3349;49.830;8.748;2022-08-01T02:51:28;21.00;72.00
6627;DHT22;3349;49.830;8.748;2022-08-01T02:53:57;20.90;72.20
6627;DHT22;3349;49.830;8.748;2022-08-01T02:56:25;20.90;72.50
6627;DHT22;3349;49.830;8.748;2022-08-01T02:59:01;20.90;73.70
6627;DHT22;3349;49.830;8.748;2022-08-01T03:01:30;20.90;73.00
6627;DHT22;3349;49.830;8.748;2022-08-01T03:04:03;20.90;73.10
6627;DHT22;3349;49.830;8.748;2022-08-01T03:06:30;20.90;73.20
6627;DHT22;3349;49.830;8.748;2022-08-01T03:08:58;20.90;73.30
6627;DHT22;3349;49.830;8.748;2022-08-01T03:11:28;20.90;73.30
6627;DHT22;3349;49.830;8.748;2022-08-01T03:13:56;20.90;73.10
6627;DHT22;3349;49.830;8.748;2022-08-01T03:16:26;20.90;72.90
6627;DHT22;3349;49.830;8.748;2022-08-01T03:18:55;21.00;73.00
6627;DHT22;3349;49.830;8.748;2022-08-01T03:21:24;21.00;73.80
6627;DHT22;3349;49.830;8.748;2022-08-01T03:23:53;21.00;72.80
6627;DHT22;3349;49.830;8.748;2022-08-01T03:26:25;21.00;72.50
6627;DHT22;3349;49.830;8.748;2022-08-01T03:28:56;21.10;72.40
6627;DHT22;3349;49.830;8.748;2022-08-01T03:31:24;21.10;72.20
6627;DHT22;3349;49.830;8.748;2022-08-01T03:33:51;21.10;72.20
6627;DHT22;3349;49.830;8.748;2022-08-01T03:36:21;21.10;72.00
6627;DHT22;3349;49.830;8.748;2022-08-01T03:38:56;21.10;71.70
6627;DHT22;3349;49.830;8.748;2022-08-01T03:41:26;21.20;72.20
6627;DHT22;3349;49.830;8.748;2022-08-01T03:43:56;21.20;71.40
6627;DHT22;3349;49.830;8.748;2022-08-01T03:46:29;21.20;71.50
6627;DHT22;3349;49.830;8.748;2022-08-01T03:49:00;21.20;71.40
6627;DHT22;3349;49.830;8.748;2022-08-01T03:51:30;21.20;71.20
6627;DHT22;3349;49.830;8.748;2022-08-01T03:54:00;21.20;71.30
6627;DHT22;3349;49.830;8.748;2022-08-01T03:56:30;21.20;71.10
6627;DHT22;3349;49.830;8.748;2022-08-01T03:58:58;21.30;70.90
6627;DHT22;3349;49.830;8.748;2022-08-01T04:01:25;21.30;70.70
6627;DHT22;3349;49.830;8.748;2022-08-01T04:03:53;21.30;70.40
6627;DHT22;3349;49.830;8.748;2022-08-01T04:06:20;21.30;70.30
6627;DHT22;3349;49.830;8.748;2022-08-01T04:08:46;21.20;70.60
6627;DHT22;3349;49.830;8.748;2022-08-01T04:11:22;21.10;70.90
6627;DHT22;3349;49.830;8.748;2022-08-01T04:13:51;21.10;71.60
6627;DHT22;3349;49.830;8.748;2022-08-01T04:16:18;21.00;72.30
6627;DHT22;3349;49.830;8.748;2022-08-01T04:18:44;20.90;73.00
6627;DHT22;3349;49.830;8.748;2022-08-01T04:21:11;20.90;73.30
6627;DHT22;3349;49.830;8.748;2022-08-01T04:23:39;20.90;73.60
6627;DHT22;3349;49.830;8.748;2022-08-01T04:26:08;20.80;73.90
6627;DHT22;3349;49.830;8.748;2022-08-01T04:28:37;20.70;75.00
6627;DHT22;3349;49.830;8.748;2022-08-01T04:31:07;20.60;75.70
6627;DHT22;3349;49.830;8.748;2022-08-01T04:33:38;20.50;76.90
6627;DHT22;3349;49.830;8.748;2022-08-01T04:36:09;20.40;77.80
6627;DHT22;3349;49.830;8.748;2022-08-01T04:38:37;20.40;78.70
6627;DHT22;3349;49.830;8.748;2022-08-01T04:41:06;20.40;78.10
6627;DHT22;3349;49.830;8.748;2022-08-01T04:43:33;20.40;77.90
6627;DHT22;3349;49.830;8.748;2022-08-01T04:46:03;20.40;78.10
6627;DHT22;3349;49.830;8.748;2022-08-01T04:48:32;20.40;78.10
6627;DHT22;3349;49.830;8.748;2022-08-01T04:50:59;20.50;78.40
6627;DHT22;3349;49.830;8.748;2022-08-01T04:53:26;20.50;78.30
6627;DHT22;3349;49.830;8.748;2022-08-01T04:55:53;20.60;77.50
6627;DHT22;3349;49.830;8.748;2022-08-01T04:58:21;20.60;77.30
6627;DHT22;3349;49.830;8.748;2022-08-01T05:00:47;20.60;77.00
6627;DHT22;3349;49.830;8.748;2022-08-01T05:03:15;20.70;76.70
6627;DHT22;3349;49.830;8.748;2022-08-01T05:05:42;20.80;75.90
6627;DHT22;3349;49.830;8.748;2022-08-01T05:08:09;20.70;76.10
6627;DHT22;3349;49.830;8.748;2022-08-01T05:10:36;20.70;76.40
6627;DHT22;3349;49.830;8.748;2022-08-01T05:13:03;20.70;77.00
6627;DHT22;3349;49.830;8.748;2022-08-01T05:15:31;20.70;76.80
6627;DHT22;3349;49.830;8.748;2022-08-01T05:17:58;20.80;76.40
6627;DHT22;3349;49.830;8.748;2022-08-01T05:20:26;20.80;75.90
6627;DHT22;3349;49.830;8.748;2022-08-01T05:22:53;20.80;75.90
6627;DHT22;3349;49.830;8.748;2022-08-01T05:25:20;20.80;76.30
6627;DHT22;3349;49.830;8.748;2022-08-01T05:27:47;20.70;76.50
6627;DHT22;3349;49.830;8.748;2022-08-01T05:30:13;20.70;76.40
6627;DHT22;3349;49.830;8.748;2022-08-01T05:32:40;20.70;76.40
6627;DHT22;3349;49.830;8.748;2022-08-01T05:35:08;20.70;76.70
6627;DHT22;3349;49.830;8.748;2022-08-01T05:37:36;20.70;77.20
6627;DHT22;3349;49.830;8.748;2022-08-01T05:40:04;20.70;77.80
6627;DHT22;3349;49.830;8.748;2022-08-01T05:42:31;20.60;77.80
6627;DHT22;3349;49.830;8.748;2022-08-01T05:44:58;20.60;78.00
6627;DHT22;3349;49.830;8.748;2022-08-01T05:47:24;20.60;78.50
6627;DHT22;3349;49.830;8.748;2022-08-01T05:49:51;20.70;78.40
6627;DHT22;3349;49.830;8.748;2022-08-01T05:52:18;20.70;78.70
6627;DHT22;3349;49.830;8.748;2022-08-01T05:54:46;20.80;78.00
6627;DHT22;3349;49.830;8.748;2022-08-01T05:57:12;21.00;77.40
6627;DHT22;3349;49.830;8.748;2022-08-01T05:59:40;21.20;76.30
6627;DHT22;3349;49.830;8.748;2022-08-01T06:02:06;21.40;74.50
6627;DHT22;3349;49.830;8.748;2022-08-01T06:04:33;21.60;73.80
6627;DHT22;3349;49.830;8.748;2022-08-01T06:07:00;21.80;71.90
6627;DHT22;3349;49.830;8.748;2022-08-01T06:09:26;21.80;71.40
6627;DHT22;3349;49.830;8.748;2022-08-01T06:11:54;21.90;70.80
6627;DHT22;3349;49.830;8.748;2022-08-01T06:14:21;22.00;70.40
6627;DHT22;3349;49.830;8.748;2022-08-01T06:16:48;22.00;69.60
6627;DHT22;3349;49.830;8.748;2022-08-01T06:19:15;21.90;69.60
6627;DHT22;3349;49.830;8.748;2022-08-01T06:21:41;22.00;69.60
6627;DHT22;3349;49.830;8.748;2022-08-01T06:24:08;22.00;68.80
6627;DHT22;3349;49.830;8.748;2022-08-01T06:26:35;22.10;68.80
6627;DHT22;3349;49.830;8.748;2022-08-01T06:29:03;22.00;69.10
6627;DHT22;3349;49.830;8.748;2022-08-01T06:31:30;22.10;68.80
6627;DHT22;3349;49.830;8.748;2022-08-01T06:33:57;22.20;68.40
6627;DHT22;3349;49.830;8.748;2022-08-01T06:36:24;22.20;68.00
6627;DHT22;3349;49.830;8.748;2022-08-01T06:38:51;22.30;68.10
6627;DHT22;3349;49.830;8.748;2022-08-01T06:41:17;22.50;66.90
6627;DHT22;3349;49.830;8.748;2022-08-01T06:43:44;22.60;66.10
6627;DHT22;3349;49.830;8.748;2022-08-01T06:46:12;22.80;65.10
6627;DHT22;3349;49.830;8.748;2022-08-01T06:48:39;22.80;65.00
6627;DHT22;3349;49.830;8.748;2022-08-01T06:51:06;22.80;64.80
6627;DHT22;3349;49.830;8.748;2022-08-01T06:53:39;22.60;65.40
6627;DHT22;3349;49.830;8.748;2022-08-01T06:56:07;22.70;65.30
6627;DHT22;3349;49.830;8.748;2022-08-01T06:58:34;22.70;65.50
6627;DHT22;3349;49.830;8.748;2022-08-01T07:01:02;22.70;65.30
6627;DHT22;3349;49.830;8.748;2022-08-01T07:03:32;22.90;64.50
6627;DHT22;3349;49.830;8.748;2022-08-01T07:05:59;23.10;63.80
6627;DHT22;3349;49.830;8.748;2022-08-01T07:08:26;23.10;63.30
6627;DHT22;3349;49.830;8.748;2022-08-01T07:10:52;23.20;62.90
6627;DHT22;3349;49.830;8.748;2022-08-01T07:13:19;23.30;62.10
6627;DHT22;3349;49.830;8.748;2022-08-01T07:15:50;23.30;62.20
6627;DHT22;3349;49.830;8.748;2022-08-01T07:18:17;23.20;62.30
6627;DHT22;3349;49.830;8.748;2022-08-01T07:20:45;23.10;62.90
6627;DHT22;3349;49.830;8.748;2022-08-01T07:23:12;23.40;62.30
6627;DHT22;3349;49.830;8.748;2022-08-01T07:25:39;23.30;62.30
6627;DHT22;3349;49.830;8.748;2022-08-01T07:28:06;23.30;62.00
6627;DHT22;3349;49.830;8.748;2022-08-01T07:30:33;23.40;62.40
6627;DHT22;3349;49.830;8.748;2022-08-01T07:33:01;23.30;62.40
6627;DHT22;3349;49.830;8.748;2022-08-01T07:35:27;23.20;62.90
6627;DHT22;3349;49.830;8.748;2022-08-01T07:37:55;23.10;63.50
6627;DHT22;3349;49.830;8.748;2022-08-01T07:40:22;23.30;63.30
6627;DHT22;3349;49.830;8.748;2022-08-01T07:42:49;23.30;63.20
6627;DHT22;3349;49.830;8.748;2022-08-01T07:45:16;23.30;62.70
6627;DHT22;3349;49.830;8.748;2022-08-01T07:47:42;23.20;63.00
6627;DHT22;3349;49.830;8.748;2022-08-01T07:50:09;23.30;62.80
6627;DHT22;3349;49.830;8.748;2022-08-01T07:52:37;23.40;62.60
6627;DHT22;3349;49.830;8.748;2022-08-01T07:55:07;23.70;62.90
6627;DHT22;3349;49.830;8.748;2022-08-01T07:57:34;24.30;60.50
6627;DHT22;3349;49.830;8.748;2022-08-01T08:00:05;25.10;57.00
6627;DHT22;3349;49.830;8.748;2022-08-01T08:02:34;25.20;55.60
6627;DHT22;3349;49.830;8.748;2022-08-01T08:05:01;24.90;56.10
6627;DHT22;3349;49.830;8.748;2022-08-01T08:07:29;25.00;56.30
6627;DHT22;3349;49.830;8.748;2022-08-01T08:09:56;25.20;56.10
6627;DHT22;3349;49.830;8.748;2022-08-01T08:12:24;25.00;56.00
6627;DHT22;3349;49.830;8.748;2022-08-01T08:14:51;24.80;56.40
6627;DHT22;3349;49.830;8.748;2022-08-01T08:17:18;25.00;55.70
6627;DHT22;3349;49.830;8.748;2022-08-01T08:19:44;25.40;54.70
6627;DHT22;3349;49.830;8.748;2022-08-01T08:22:11;25.40;54.90
6627;DHT22;3349;49.830;8.748;2022-08-01T08:24:38;25.50;53.90
6627;DHT22;3349;49.830;8.748;2022-08-01T08:27:04;25.50;53.30
6627;DHT22;3349;49.830;8.748;2022-08-01T08:29:34;25.40;53.20
6627;DHT22;3349;49.830;8.748;2022-08-01T08:32:01;25.40;54.50
6627;DHT22;3349;49.830;8.748;2022-08-01T08:34:28;25.70;53.30
6627;DHT22;3349;49.830;8.748;2022-08-01T08:36:55;25.80;53.30
6627;DHT22;3349;49.830;8.748;2022-08-01T08:39:23;26.00;53.20
6627;DHT22;3349;49.830;8.748;2022-08-01T08:41:50;26.20;51.70
6627;DHT22;3349;49.830;8.748;2022-08-01T08:44:17;26.80;50.00
6627;DHT22;3349;49.830;8.748;2022-08-01T08:46:47;26.90;49.80
6627;DHT22;3349;49.830;8.748;2022-08-01T08:49:18;27.20;49.10
6627;DHT22;3349;49.830;8.748;2022-08-01T08:51:48;26.80;49.40
6627;DHT22;3349;49.830;8.748;2022-08-01T08:54:16;26.60;50.30
6627;DHT22;3349;49.830;8.748;2022-08-01T08:56:44;26.70;49.50
6627;DHT22;3349;49.830;8.748;2022-08-01T08:59:12;26.70;48.80
6627;DHT22;3349;49.830;8.748;2022-08-01T09:01:40;26.30;49.60
6627;DHT22;3349;49.830;8.748;2022-08-01T09:04:09;26.30;50.00
6627;DHT22;3349;49.830;8.748;2022-08-01T09:06:37;26.30;50.10
6627;DHT22;3349;49.830;8.748;2022-08-01T09:09:04;26.50;49.40
6627;DHT22;3349;49.830;8.748;2022-08-01T09:11:32;26.80;48.50
6627;DHT22;3349;49.830;8.748;2022-08-01T09:14:08;26.80;48.20
6627;DHT22;3349;49.830;8.748;2022-08-01T09:16:38;26.60;48.60
6627;DHT22;3349;49.830;8.748;2022-08-01T09:19:13;26.50;49.40
6627;DHT22;3349;49.830;8.748;2022-08-01T09:21:55;27.20;48.70
6627;DHT22;3349;49.830;8.748;2022-08-01T09:24:24;28.20;46.40
6627;DHT22;3349;49.830;8.748;2022-08-01T09:26:50;30.50;41.90
6627;DHT22;3349;49.830;8.748;2022-08-01T09:29:19;30.50;40.50
6627;DHT22;3349;49.830;8.748;2022-08-01T09:31:46;31.30;38.90
6627;DHT22;3349;49.830;8.748;2022-08-01T09:34:23;31.10;38.00
6627;DHT22;3349;49.830;8.748;2022-08-01T09:36:51;31.60;37.90
6627;DHT22;3349;49.830;8.748;2022-08-01T09:39:21;32.10;36.10
6627;DHT22;3349;49.830;8.748;2022-08-01T09:41:48;31.80;36.50
6627;DHT22;3349;49.830;8.748;2022-08-01T09:44:17;31.30;36.80
6627;DHT22;3349;49.830;8.748;2022-08-01T09:46:52;32.20;36.10
6627;DHT22;3349;49.830;8.748;2022-08-01T09:49:31;33.00;34.40
6627;DHT22;3349;49.830;8.748;2022-08-01T09:52:10;33.90;33.50
6627;DHT22;3349;49.830;8.748;2022-08-01T09:54:37;34.70;31.90
6627;DHT22;3349;49.830;8.748;2022-08-01T09:57:09;34.10;31.20
6627;DHT22;3349;49.830;8.748;2022-08-01T09:59:36;33.60;32.10
6627;DHT22;3349;49.830;8.748;2022-08-01T10:02:06;31.40;35.10
6627;DHT22;3349;49.830;8.748;2022-08-01T10:04:34;32.60;35.00
6627;DHT22;3349;49.830;8.748;2022-08-01T10:07:05;32.80;33.60
6627;DHT22;3349;49.830;8.748;2022-08-01T10:09:35;33.00;32.40
6627;DHT22;3349;49.830;8.748;2022-08-01T10:12:03;32.40;34.00
6627;DHT22;3349;49.830;8.748;2022-08-01T10:14:30;33.40;32.30
6627;DHT22;3349;49.830;8.748;2022-08-01T10:16:58;33.50;32.10
6627;DHT22;3349;49.830;8.748;2022-08-01T10:19:27;34.20;30.80
6627;DHT22;3349;49.830;8.748;2022-08-01T10:21:57;32.70;32.50
6627;DHT22;3349;49.830;8.748;2022-08-01T10:24:26;32.90;33.50
6627;DHT22;3349;49.830;8.748;2022-08-01T10:26:57;32.90;33.10
6627;DHT22;3349;49.830;8.748;2022-08-01T10:29:31;33.20;32.70
6627;DHT22;3349;49.830;8.748;2022-08-01T10:32:01;33.60;31.80
6627;DHT22;3349;49.830;8.748;2022-08-01T10:34:29;34.00;30.90
6627;DHT22;3349;49.830;8.748;2022-08-01T10:36:57;34.40;29.60
6627;DHT22;3349;49.830;8.748;2022-08-01T10:39:24;35.10;28.90
6627;DHT22;3349;49.830;8.748;2022-08-01T10:41:54;35.90;28.60
6627;DHT22;3349;49.830;8.748;2022-08-01T10:44:21;36.60;27.20
6627;DHT22;3349;49.830;8.748;2022-08-01T10:46:52;35.60;28.20
6627;DHT22;3349;49.830;8.748;2022-08-01T10:49:22;36.20;27.90
6627;DHT22;3349;49.830;8.748;2022-08-01T10:51:49;36.50;27.60
6627;DHT22;3349;49.830;8.748;2022-08-01T10:54:18;36.80;26.50
6627;DHT22;3349;49.830;8.748;2022-08-01T10:56:46;37.00;26.20
6627;DHT22;3349;49.830;8.748;2022-08-01T10:59:15;38.10;25.80
6627;DHT22;3349;49.830;8.748;2022-08-01T11:01:56;36.30;26.40
6627;DHT22;3349;49.830;8.748;2022-08-01T11:04:34;35.10;28.00
6627;DHT22;3349;49.830;8.748;2022-08-01T11:07:04;33.80;29.40
6627;DHT22;3349;49.830;8.748;2022-08-01T11:09:40;32.30;31.30
6627;DHT22;3349;49.830;8.748;2022-08-01T11:12:09;31.50;33.40
6627;DHT22;3349;49.830;8.748;2022-08-01T11:17:43;33.00;32.30
6627;DHT22;3349;49.830;8.748;2022-08-01T11:20:14;34.00;31.10
6627;DHT22;3349;49.830;8.748;2022-08-01T11:26:21;34.90;28.80
6627;DHT22;3349;49.830;8.748;2022-08-01T11:29:13;35.20;27.80
6627;DHT22;3349;49.830;8.748;2022-08-01T11:31:40;35.40;27.50
6627;DHT22;3349;49.830;8.748;2022-08-01T11:34:07;35.60;27.50
6627;DHT22;3349;49.830;8.748;2022-08-01T11:36:34;35.50;27.00
6627;DHT22;3349;49.830;8.748;2022-08-01T11:39:12;35.70;26.80
6627;DHT22;3349;49.830;8.748;2022-08-01T11:41:41;35.80;26.60
6627;DHT22;3349;49.830;8.748;2022-08-01T11:44:09;34.90;27.90
6627;DHT22;3349;49.830;8.748;2022-08-01T11:46:51;35.10;28.00
6627;DHT22;3349;49.830;8.748;2022-08-01T11:49:28;34.50;28.20
6627;DHT22;3349;49.830;8.748;2022-08-01T11:51:59;34.40;28.10
6627;DHT22;3349;49.830;8.748;2022-08-01T11:54:27;33.70;28.70
6627;DHT22;3349;49.830;8.748;2022-08-01T11:57:02;32.60;29.80
6627;DHT22;3349;49.830;8.748;2022-08-01T11:59:36;31.90;31.10
6627;DHT22;3349;49.830;8.748;2022-08-01T12:02:03;32.90;31.10
6627;DHT22;3349;49.830;8.748;2022-08-01T12:04:45;34.00;29.80
6627;DHT22;3349;49.830;8.748;2022-08-01T12:07:12;35.50;27.70
6627;DHT22;3349;49.830;8.748;2022-08-01T12:09:39;37.30;26.40
6627;DHT22;3349;49.830;8.748;2022-08-01T12:12:09;37.70;25.20
6627;DHT22;3349;49.830;8.748;2022-08-01T12:14:36;38.50;24.40
6627;DHT22;3349;49.830;8.748;2022-08-01T12:17:03;38.50;23.80
6627;DHT22;3349;49.830;8.748;2022-08-01T12:19:30;38.30;23.20
6627;DHT22;3349;49.830;8.748;2022-08-01T12:22:10;38.30;23.50
6627;DHT22;3349;49.830;8.748;2022-08-01T12:24:39;38.60;22.40
6627;DHT22;3349;49.830;8.748;2022-08-01T12:27:08;37.60;22.90
6627;DHT22;3349;49.830;8.748;2022-08-01T12:29:37;37.70;23.40
6627;DHT22;3349;49.830;8.748;2022-08-01T12:32:21;38.10;23.40
6627;DHT22;3349;49.830;8.748;2022-08-01T12:34:48;38.70;23.40
6627;DHT22;3349;49.830;8.748;2022-08-01T12:37:16;38.80;22.30
6627;DHT22;3349;49.830;8.748;2022-08-01T12:39:43;38.10;22.80
6627;DHT22;3349;49.830;8.748;2022-08-01T12:42:12;37.20;23.30
6627;DHT22;3349;49.830;8.748;2022-08-01T12:44:40;36.90;23.90
6627;DHT22;3349;49.830;8.748;2022-08-01T12:47:09;35.20;24.80
6627;DHT22;3349;49.830;8.748;2022-08-01T12:49:37;34.40;26.20
6627;DHT22;3349;49.830;8.748;2022-08-01T12:52:04;33.60;26.70
6627;DHT22;3349;49.830;8.748;2022-08-01T12:55:03;33.00;27.90
6627;DHT22;3349;49.830;8.748;2022-08-01T12:57:32;32.50;28.30
6627;DHT22;3349;49.830;8.748;2022-08-01T13:00:10;32.20;28.60
6627;DHT22;3349;49.830;8.748;2022-08-01T13:02:37;32.70;28.50
6627;DHT22;3349;49.830;8.748;2022-08-01T13:05:06;32.80;27.90
6627;DHT22;3349;49.830;8.748;2022-08-01T13:07:45;32.80;27.80
6627;DHT22;3349;49.830;8.748;2022-08-01T13:10:13;32.10;28.60
6627;DHT22;3349;49.830;8.748;2022-08-01T13:12:52;31.50;29.40
6627;DHT22;3349;49.830;8.748;2022-08-01T13:15:22;31.40;30.20
6627;DHT22;3349;49.830;8.748;2022-08-01T13:17:51;31.30;30.10
6627;DHT22;3349;49.830;8.748;2022-08-01T13:20:29;31.40;30.00
6627;DHT22;3349;49.830;8.748;2022-08-01T13:23:12;31.20;29.90
6627;DHT22;3349;49.830;8.748;2022-08-01T13:25:50;31.60;29.40
6627;DHT22;3349;49.830;8.748;2022-08-01T13:28:21;32.20;28.80
6627;DHT22;3349;49.830;8.748;2022-08-01T13:30:52;32.30;28.80
6627;DHT22;3349;49.830;8.748;2022-08-01T13:33:19;31.90;29.00
6627;DHT22;3349;49.830;8.748;2022-08-01T13:35:46;31.60;29.30
6627;DHT22;3349;49.830;8.748;2022-08-01T13:38:13;31.60;29.30
6627;DHT22;3349;49.830;8.748;2022-08-01T13:40:40;31.80;29.50
6627;DHT22;3349;49.830;8.748;2022-08-01T13:43:08;31.50;29.80
6627;DHT22;3349;49.830;8.748;2022-08-01T13:45:36;31.20;30.00
6627;DHT22;3349;49.830;8.748;2022-08-01T13:48:04;31.30;29.60
6627;DHT22;3349;49.830;8.748;2022-08-01T13:50:31;30.90;30.40
6627;DHT22;3349;49.830;8.748;2022-08-01T13:52:58;30.70;30.50
6627;DHT22;3349;49.830;8.748;2022-08-01T13:55:24;30.60;31.10
6627;DHT22;3349;49.830;8.748;2022-08-01T13:57:51;30.80;30.80
6627;DHT22;3349;49.830;8.748;2022-08-01T14:00:18;30.90;30.70
6627;DHT22;3349;49.830;8.748;2022-08-01T14:02:46;31.10;30.00
6627;DHT22;3349;49.830;8.748;2022-08-01T14:05:13;31.00;30.00
6627;DHT22;3349;49.830;8.748;2022-08-01T14:07:40;30.60;30.20
6627;DHT22;3349;49.830;8.748;2022-08-01T14:10:07;30.40;30.70
6627;DHT22;3349;49.830;8.748;2022-08-01T14:12:34;30.40;30.90
6627;DHT22;3349;49.830;8.748;2022-08-01T14:15:00;30.30;31.80
6627;DHT22;3349;49.830;8.748;2022-08-01T14:17:27;30.20;32.50
6627;DHT22;3349;49.830;8.748;2022-08-01T14:19:55;30.10;32.80
6627;DHT22;3349;49.830;8.748;2022-08-01T14:22:24;30.30;32.80
6627;DHT22;3349;49.830;8.748;2022-08-01T14:24:51;30.20;32.50
6627;DHT22;3349;49.830;8.748;2022-08-01T14:27:18;30.30;32.30
6627;DHT22;3349;49.830;8.748;2022-08-01T14:29:44;30.30;32.40
6627;DHT22;3349;49.830;8.748;2022-08-01T14:32:12;30.40;31.80
6627;DHT22;3349;49.830;8.748;2022-08-01T14:34:38;30.50;31.80
6627;DHT22;3349;49.830;8.748;2022-08-01T14:37:07;31.10;30.80
6627;DHT22;3349;49.830;8.748;2022-08-01T14:39:33;31.30;30.60
6627;DHT22;3349;49.830;8.748;2022-08-01T14:42:00;31.30;30.60
6627;DHT22;3349;49.830;8.748;2022-08-01T14:44:27;31.40;30.00
6627;DHT22;3349;49.830;8.748;2022-08-01T14:46:54;30.70;30.20
6627;DHT22;3349;49.830;8.748;2022-08-01T14:49:20;30.50;31.50
6627;DHT22;3349;49.830;8.748;2022-08-01T14:51:47;30.50;31.30
6627;DHT22;3349;49.830;8.748;2022-08-01T14:54:15;30.40;31.90
6627;DHT22;3349;49.830;8.748;2022-08-01T14:56:42;30.20;32.10
6627;DHT22;3349;49.830;8.748;2022-08-01T14:59:09;29.90;32.60
6627;DHT22;3349;49.830;8.748;2022-08-01T15:01:35;29.70;33.20
6627;DHT22;3349;49.830;8.748;2022-08-01T15:04:02;29.70;32.70
6627;DHT22;3349;49.830;8.748;2022-08-01T15:06:29;30.10;32.50
6627;DHT22;3349;49.830;8.748;2022-08-01T15:08:55;30.10;32.40
6627;DHT22;3349;49.830;8.748;2022-08-01T15:11:24;30.10;32.10
6627;DHT22;3349;49.830;8.748;2022-08-01T15:13:50;30.10;32.20
6627;DHT22;3349;49.830;8.748;2022-08-01T15:16:31;29.60;32.60
6627;DHT22;3349;49.830;8.748;2022-08-01T15:18:58;29.70;33.00
6627;DHT22;3349;49.830;8.748;2022-08-01T15:21:25;29.50;33.60
6627;DHT22;3349;49.830;8.748;2022-08-01T15:23:51;29.30;33.90
6627;DHT22;3349;49.830;8.748;2022-08-01T15:26:18;29.00;34.30
6627;DHT22;3349;49.830;8.748;2022-08-01T15:28:46;28.90;34.60
6627;DHT22;3349;49.830;8.748;2022-08-01T15:31:13;29.00;34.90
6627;DHT22;3349;49.830;8.748;2022-08-01T15:33:40;29.00;34.90
6627;DHT22;3349;49.830;8.748;2022-08-01T15:36:07;28.90;35.20
6627;DHT22;3349;49.830;8.748;2022-08-01T15:38:33;28.70;35.20
6627;DHT22;3349;49.830;8.748;2022-08-01T15:41:00;28.50;34.90
6627;DHT22;3349;49.830;8.748;2022-08-01T15:43:27;28.60;35.00
6627;DHT22;3349;49.830;8.748;2022-08-01T15:48:31;28.30;36.60
6627;DHT22;3349;49.830;8.748;2022-08-01T15:50:58;28.20;37.60
6627;DHT22;3349;49.830;8.748;2022-08-01T15:53:24;27.40;41.20
6627;DHT22;3349;49.830;8.748;2022-08-01T15:55:51;26.90;45.60
6627;DHT22;3349;49.830;8.748;2022-08-01T15:58:18;26.80;48.60
6627;DHT22;3349;49.830;8.748;2022-08-01T16:00:46;26.50;52.00
6627;DHT22;3349;49.830;8.748;2022-08-01T16:03:13;26.30;55.60
6627;DHT22;3349;49.830;8.748;2022-08-01T16:05:41;26.00;60.80
6627;DHT22;3349;49.830;8.748;2022-08-01T16:08:08;25.80;59.80
6627;DHT22;3349;49.830;8.748;2022-08-01T16:10:35;25.50;59.10
6627;DHT22;3349;49.830;8.748;2022-08-01T16:13:02;25.20;59.10
6627;DHT22;3349;49.830;8.748;2022-08-01T16:15:29;25.10;57.10
6627;DHT22;3349;49.830;8.748;2022-08-01T16:17:56;25.00;56.10
6627;DHT22;3349;49.830;8.748;2022-08-01T16:20:23;25.00;57.60
6627;DHT22;3349;49.830;8.748;2022-08-01T16:22:51;24.90;56.30